createdAt,value
2018-06-16T15:40:42.786Z,985.82
2018-06-16T15:41:52.815Z,985.76
2018-06-16T15:43:02.592Z,985.73
2018-06-16T15:44:12.094Z,985.6
2018-06-16T15:45:22.211Z,985.65
2018-06-16T15:46:32.282Z,985.58
2018-06-16T15:47:42.143Z,985.57
2018-06-16T15:48:51.907Z,985.57
2018-06-16T15:50:01.954Z,985.63
2018-06-16T15:51:11.189Z,985.72
2018-06-16T15:52:21.275Z,985.72
2018-06-16T15:53:31.083Z,985.66
2018-06-16T15:54:40.589Z,985.73
2018-06-16T15:55:50.621Z,985.78
2018-06-16T15:57:02.668Z,985.75
2018-06-16T15:58:12.989Z,985.72
2018-06-16T15:59:22.493Z,985.64
2018-06-16T16:00:32.252Z,985.63
2018-06-16T16:01:42.018Z,985.67
2018-06-16T16:02:52.048Z,985.77
2018-06-16T16:04:01.810Z,986.01
2018-06-16T16:05:11.308Z,986.03
2018-06-16T16:06:21.333Z,986.15
2018-06-16T16:07:30.834Z,986.21
2018-06-16T16:08:40.061Z,986.32
2018-06-16T16:09:50.086Z,986.67
2018-06-16T16:10:59.575Z,987.1
2018-06-16T16:12:09.361Z,986.65
2018-06-16T16:13:19.404Z,985.59
2018-06-16T16:14:29.432Z,984.32
2018-06-16T16:15:39.195Z,983.98
2018-06-16T16:16:48.687Z,983.27
2018-06-16T16:17:58.181Z,983.3
2018-06-16T16:19:07.939Z,983.42
2018-06-16T16:20:17.450Z,983.5
2018-06-16T16:21:27.216Z,983.81
2018-06-16T16:22:36.985Z,983.72
2018-06-16T16:23:47.024Z,983.67
2018-06-16T16:24:57.048Z,983.59
2018-06-16T16:26:08.546Z,983.56
2018-06-16T16:27:18.603Z,983.55
2018-06-16T16:28:28.330Z,983.55
2018-06-16T16:29:38.351Z,983.52
2018-06-16T16:30:47.581Z,983.49
2018-06-16T16:31:57.807Z,983.42
2018-06-16T16:33:07.301Z,983.54
2018-06-16T16:34:16.265Z,983.56
2018-06-16T16:35:26.289Z,983.49
2018-06-16T16:36:36.048Z,983.52
2018-06-16T16:37:45.893Z,983.43
2018-06-16T16:38:55.120Z,983.47
2018-06-16T16:40:04.880Z,983.51
2018-06-16T16:41:14.799Z,983.62
2018-06-16T16:42:24.556Z,983.58
2018-06-16T16:43:34.311Z,983.55
2018-06-16T16:44:44.335Z,983.44
2018-06-16T16:45:54.364Z,983.45
2018-06-16T16:47:03.852Z,983.66
2018-06-16T16:48:13.347Z,983.6
2018-06-16T16:49:23.111Z,983.43
2018-06-16T16:50:32.333Z,983.58
2018-06-16T16:51:42.161Z,983.43
2018-06-16T16:52:51.845Z,983.41
2018-06-16T16:54:01.871Z,983.48
2018-06-16T16:55:11.636Z,983.51
2018-06-16T16:56:20.856Z,983.54
2018-06-16T16:57:30.926Z,983.51
2018-06-16T16:58:40.677Z,983.53
2018-06-16T16:59:50.693Z,983.52
2018-06-16T17:01:00.730Z,983.52
2018-06-16T17:02:10.481Z,983.56
2018-06-16T17:03:20.497Z,983.57
2018-06-16T17:04:29.450Z,983.56
2018-06-16T17:05:39.482Z,983.5
2018-06-16T17:06:49.513Z,983.55
2018-06-16T17:07:59.535Z,983.56
2018-06-16T17:09:09.056Z,983.53
2018-06-16T17:10:18.800Z,983.55
2018-06-16T17:11:28.817Z,983.55
2018-06-16T17:12:38.833Z,983.54
2018-06-16T17:13:48.576Z,983.49
2018-06-16T17:14:58.321Z,983.52
2018-06-16T17:16:07.805Z,983.54
2018-06-16T17:17:17.817Z,983.58
2018-06-16T17:18:27.830Z,983.58
2018-06-16T17:19:37.588Z,983.56
2018-06-16T17:20:47.607Z,983.58
2018-06-16T17:21:57.358Z,983.64
2018-06-16T17:23:07.433Z,983.61
2018-06-16T17:24:17.446Z,983.64
2018-06-16T17:25:27.190Z,983.64
2018-06-16T17:26:36.958Z,983.62
2018-06-16T17:27:46.479Z,983.63
2018-06-16T17:28:56.496Z,983.64
2018-06-16T17:30:06.509Z,983.62
2018-06-16T17:31:16.534Z,983.65
2018-06-16T17:32:26.544Z,983.66
2018-06-16T17:33:36.555Z,983.63
2018-06-16T17:34:46.574Z,983.6
2018-06-16T17:35:56.334Z,983.58
2018-06-16T17:37:06.091Z,983.61
2018-06-16T17:38:15.838Z,983.62
2018-06-16T17:39:25.850Z,983.64
2018-06-16T17:40:35.333Z,983.62
2018-06-16T17:41:45.347Z,983.58
2018-06-16T17:42:55.089Z,983.58
2018-06-16T17:44:05.101Z,983.58
2018-06-16T17:45:15.121Z,983.52
2018-06-16T17:46:25.147Z,983.61
2018-06-16T17:47:35.160Z,983.6
2018-06-16T17:48:45.227Z,983.61
2018-06-16T17:49:54.975Z,983.61
2018-06-16T17:51:04.720Z,983.63
2018-06-16T17:52:14.761Z,983.63
2018-06-16T17:53:24.519Z,983.66
2018-06-16T17:54:34.538Z,983.62
2018-06-16T17:55:43.750Z,983.64
2018-06-16T17:56:53.228Z,983.62
2018-06-16T17:58:02.970Z,983.61
2018-06-16T17:59:12.723Z,983.63
2018-06-16T18:00:22.476Z,983.65
2018-06-16T18:01:31.958Z,983.64
2018-06-16T18:02:41.710Z,983.59
2018-06-16T18:03:51.727Z,983.58
2018-06-16T18:05:01.556Z,983.59
2018-06-16T18:06:10.685Z,983.58
2018-06-16T18:07:20.695Z,983.53
2018-06-16T18:08:30.449Z,983.53
2018-06-16T18:09:40.197Z,983.54
2018-06-16T18:10:50.204Z,983.55
2018-06-16T18:12:00.220Z,983.56
2018-06-16T18:13:10.013Z,983.55
2018-06-16T18:14:20.026Z,983.53
2018-06-16T18:15:30.035Z,983.53
2018-06-16T18:16:39.993Z,983.48
2018-06-16T18:17:50.144Z,983.51
2018-06-16T18:19:00.109Z,983.53
2018-06-16T18:20:09.584Z,983.51
2018-06-16T18:21:19.329Z,983.49
2018-06-16T18:22:28.807Z,983.49
2018-06-16T18:23:38.821Z,983.48
2018-06-16T18:24:48.605Z,983.5
2018-06-16T18:25:58.358Z,983.51
2018-06-16T18:27:07.833Z,983.52
2018-06-16T18:28:17.845Z,983.51
2018-06-16T18:29:27.335Z,983.51
2018-06-16T18:30:37.343Z,983.51
2018-06-16T18:31:47.083Z,983.49
2018-06-16T18:32:57.100Z,983.55
2018-06-16T18:34:07.109Z,983.47
2018-06-16T18:35:17.116Z,983.53
2018-06-16T18:36:27.137Z,983.54
2018-06-16T18:37:37.224Z,983.56
2018-06-16T18:38:47.454Z,983.57
2018-06-16T18:39:57.464Z,983.57
2018-06-16T18:41:06.958Z,983.58
2018-06-16T18:42:16.706Z,983.54
2018-06-16T18:43:26.712Z,983.58
2018-06-16T18:44:36.456Z,983.56
2018-06-16T18:45:45.932Z,983.6
2018-06-16T18:46:55.682Z,983.6
2018-06-16T18:48:05.439Z,983.58
2018-06-16T18:49:15.455Z,983.58
2018-06-16T18:50:25.471Z,983.56
2018-06-16T18:51:35.485Z,983.54
2018-06-16T18:52:45.493Z,983.56
2018-06-16T18:53:55.506Z,983.57
2018-06-16T18:55:05.247Z,983.59
2018-06-16T18:56:15.282Z,983.58
2018-06-16T18:57:25.374Z,983.6
2018-06-16T18:58:34.903Z,983.59
2018-06-16T18:59:44.642Z,983.62
2018-06-16T19:00:54.653Z,983.62
2018-06-16T19:02:04.669Z,983.63
2018-06-16T19:03:14.409Z,983.63
2018-06-16T19:04:23.884Z,983.61
2018-06-16T19:05:33.632Z,983.6
2018-06-16T19:06:43.384Z,983.62
2018-06-16T19:07:52.864Z,983.62
2018-06-16T19:09:02.610Z,983.6
2018-06-16T19:10:12.366Z,983.6
2018-06-16T19:11:22.111Z,983.57
2018-06-16T19:12:31.595Z,983.58
2018-06-16T19:13:41.344Z,983.57
2018-06-16T19:14:50.286Z,983.56
2018-06-16T19:16:00.298Z,983.58
2018-06-16T19:17:09.941Z,983.58
2018-06-16T19:18:19.418Z,983.56
2018-06-16T19:19:29.438Z,983.58
2018-06-16T19:20:39.453Z,983.57
2018-06-16T19:21:49.110Z,983.55
2018-06-16T19:22:59.182Z,983.57
2018-06-16T19:24:09.142Z,983.56
2018-06-16T19:25:18.893Z,983.59
2018-06-16T19:26:28.908Z,983.59
2018-06-16T19:27:38.650Z,983.56
2018-06-16T19:28:48.133Z,983.69
2018-06-16T19:29:57.618Z,983.71
2018-06-16T19:31:07.407Z,983.61
2018-06-16T19:32:17.146Z,983.66
2018-06-16T19:33:27.161Z,983.63
2018-06-16T19:34:36.904Z,983.64
2018-06-16T19:35:46.120Z,983.67
2018-06-16T19:36:55.327Z,983.71
2018-06-16T19:38:05.340Z,983.73
2018-06-16T19:39:15.370Z,983.76
2018-06-16T19:40:25.376Z,983.74
2018-06-16T19:41:35.387Z,983.79
2018-06-16T19:42:45.412Z,983.74
2018-06-16T19:43:55.155Z,983.79
2018-06-16T19:45:05.162Z,983.75
2018-06-16T19:46:15.169Z,983.78
2018-06-16T19:47:25.191Z,983.77
2018-06-16T19:48:35.203Z,983.77
2018-06-16T19:49:44.949Z,983.81
2018-06-16T19:50:54.432Z,983.8
2018-06-16T19:52:03.909Z,983.8
2018-06-16T19:53:13.656Z,983.83
2018-06-16T19:54:23.451Z,983.81
2018-06-16T19:55:32.927Z,983.8
2018-06-16T19:56:42.673Z,983.82
2018-06-16T19:57:52.684Z,983.82
2018-06-16T19:59:02.707Z,983.8
2018-06-16T20:00:12.714Z,983.81
2018-06-16T20:01:21.921Z,983.81
2018-06-16T20:02:31.926Z,983.81
2018-06-16T20:03:41.669Z,983.84
2018-06-16T20:04:51.410Z,983.87
2018-06-16T20:06:01.422Z,983.87
2018-06-16T20:07:10.904Z,983.88
2018-06-16T20:08:20.908Z,983.89
2018-06-16T20:09:30.676Z,983.86
2018-06-16T20:10:40.696Z,983.91
2018-06-16T20:11:50.476Z,983.91
2018-06-16T20:13:00.420Z,983.87
2018-06-16T20:14:10.161Z,983.9
2018-06-16T20:15:19.907Z,983.88
2018-06-16T20:16:29.652Z,983.85
2018-06-16T20:17:39.395Z,983.85
2018-06-16T20:18:48.609Z,983.84
2018-06-16T20:19:58.359Z,983.81
2018-06-16T20:21:08.369Z,983.79
2018-06-16T20:22:18.383Z,983.82
2018-06-16T20:23:28.124Z,983.77
2018-06-16T20:24:38.131Z,983.81
2018-06-16T20:25:47.924Z,983.77
2018-06-16T20:26:57.666Z,983.75
2018-06-16T20:28:07.679Z,983.74
2018-06-16T20:29:17.417Z,983.74
2018-06-16T20:30:27.160Z,983.71
2018-06-16T20:31:36.634Z,983.7
2018-06-16T20:32:46.376Z,983.69
2018-06-16T20:33:55.859Z,983.72
2018-06-16T20:35:05.601Z,983.71
2018-06-16T20:36:15.609Z,983.7
2018-06-16T20:37:25.411Z,983.64
2018-06-16T20:38:35.744Z,983.65
2018-06-16T20:39:45.493Z,983.62
2018-06-16T20:40:55.237Z,983.65
2018-06-16T20:42:04.718Z,983.62
2018-06-16T20:43:14.723Z,983.62
2018-06-16T20:44:24.469Z,983.64
2018-06-16T20:45:34.212Z,983.64
2018-06-16T20:46:44.226Z,983.67
2018-06-16T20:47:54.266Z,983.68
2018-06-16T20:49:04.289Z,983.68
2018-06-16T20:50:14.033Z,983.66
2018-06-16T20:51:24.042Z,983.69
2018-06-16T20:52:34.047Z,983.68
2018-06-16T20:53:43.783Z,983.67
2018-06-16T20:54:53.798Z,983.65
2018-06-16T20:56:03.806Z,983.67
2018-06-16T20:57:13.547Z,983.65
2018-06-16T20:58:23.290Z,983.64
2018-06-16T20:59:32.765Z,983.65
2018-06-16T21:00:42.771Z,983.67
2018-06-16T21:01:52.783Z,983.63
2018-06-16T21:03:02.522Z,983.66
2018-06-16T21:04:12.529Z,983.63
2018-06-16T21:05:22.008Z,983.61
2018-06-16T21:06:32.016Z,983.64
2018-06-16T21:07:41.760Z,983.66
2018-06-16T21:08:51.785Z,983.66
2018-06-16T21:10:01.540Z,983.66
2018-06-16T21:11:10.739Z,983.68
2018-06-16T21:12:20.746Z,983.69
2018-06-16T21:13:30.761Z,983.68
2018-06-16T21:14:40.768Z,983.66
2018-06-16T21:15:50.779Z,983.67
2018-06-16T21:17:00.786Z,983.69
2018-06-16T21:18:10.800Z,983.68
2018-06-16T21:19:20.809Z,983.68
2018-06-16T21:20:30.821Z,983.68
2018-06-16T21:21:40.831Z,983.71
2018-06-16T21:22:50.571Z,983.72
2018-06-16T21:24:00.580Z,983.74
2018-06-16T21:25:10.374Z,983.72
2018-06-16T21:26:19.848Z,983.73
2018-06-16T21:27:29.862Z,983.69
2018-06-16T21:28:39.603Z,983.7
2018-06-16T21:29:49.620Z,983.64
2018-06-16T21:30:59.358Z,983.68
2018-06-16T21:32:09.416Z,983.67
2018-06-16T21:33:19.426Z,983.65
2018-06-16T21:34:31.172Z,983.65
2018-06-16T21:35:41.179Z,983.66
2018-06-16T21:36:51.185Z,983.69
2018-06-16T21:38:00.930Z,983.64
2018-06-16T21:39:10.722Z,983.64
2018-06-16T21:40:20.465Z,983.66
2018-06-16T21:41:30.478Z,983.6
2018-06-16T21:42:40.215Z,983.61
2018-06-16T21:43:50.227Z,983.62
2018-06-16T21:44:59.975Z,983.62
2018-06-16T21:46:09.449Z,983.62
2018-06-16T21:47:19.459Z,983.6
2018-06-16T21:48:29.204Z,983.59
2018-06-16T21:49:39.217Z,983.6
2018-06-16T21:50:48.956Z,983.61
2018-06-16T21:51:58.698Z,983.6
2018-06-16T21:53:08.437Z,983.6
2018-06-16T21:54:18.177Z,983.57
2018-06-16T21:55:28.185Z,983.57
2018-06-16T21:56:37.701Z,983.6
2018-06-16T21:57:47.433Z,983.58
2018-06-16T21:58:57.167Z,983.56
2018-06-16T22:00:06.653Z,983.52
2018-06-16T22:01:16.128Z,983.54
2018-06-16T22:02:26.145Z,983.53
2018-06-16T22:03:35.622Z,983.52
2018-06-16T22:04:45.094Z,983.5
2018-06-16T22:05:54.835Z,983.48
2018-06-16T22:07:04.851Z,983.47
2018-06-16T22:08:14.066Z,983.46
2018-06-16T22:09:24.424Z,983.47
2018-06-16T22:10:34.010Z,983.47
2018-06-16T22:11:44.042Z,983.49
2018-06-16T22:12:53.784Z,983.47
2018-06-16T22:14:03.805Z,983.48
2018-06-16T22:15:13.550Z,983.43
2018-06-16T22:16:23.296Z,983.41
2018-06-16T22:17:33.038Z,983.42
2018-06-16T22:18:42.513Z,983.4
2018-06-16T22:19:52.459Z,983.45
2018-06-16T22:21:01.944Z,983.41
2018-06-16T22:22:11.150Z,983.42
2018-06-16T22:23:21.160Z,983.44
2018-06-16T22:24:31.165Z,983.44
2018-06-16T22:25:40.912Z,983.41
2018-06-16T22:26:50.125Z,983.47
2018-06-16T22:28:00.135Z,983.42
2018-06-16T22:29:10.141Z,983.44
2018-06-16T22:30:20.175Z,983.39
2018-06-16T22:31:30.188Z,983.41
2018-06-16T22:32:39.929Z,983.34
2018-06-16T22:33:49.939Z,983.36
2018-06-16T22:34:59.153Z,983.36
2018-06-16T22:36:08.631Z,983.35
2018-06-16T22:37:18.108Z,983.37
2018-06-16T22:38:28.128Z,983.36
2018-06-16T22:39:37.333Z,983.36
2018-06-16T22:40:47.360Z,983.36
2018-06-16T22:41:57.103Z,983.4
2018-06-16T22:43:06.843Z,983.36
2018-06-16T22:44:16.848Z,983.35
2018-06-16T22:45:26.856Z,983.39
2018-06-16T22:46:36.595Z,983.41
2018-06-16T22:47:46.071Z,983.38
2018-06-16T22:48:55.809Z,983.39
2018-06-16T22:50:05.569Z,983.4
2018-06-16T22:51:15.938Z,983.45
2018-06-16T22:52:25.674Z,983.38
2018-06-16T22:53:35.684Z,983.38
2018-06-16T22:54:45.689Z,983.38
2018-06-16T22:55:54.895Z,983.42
2018-06-16T22:57:04.907Z,983.4
2018-06-16T22:58:14.919Z,983.4
2018-06-16T22:59:24.660Z,983.38
2018-06-16T23:00:34.664Z,983.4
2018-06-16T23:01:44.673Z,983.4
2018-06-16T23:02:54.701Z,983.41
2018-06-16T23:04:04.297Z,983.43
2018-06-16T23:05:14.314Z,983.45
2018-06-16T23:06:24.329Z,983.43
2018-06-16T23:07:34.351Z,983.43
2018-06-16T23:08:44.365Z,983.47
2018-06-16T23:09:54.377Z,983.46
2018-06-16T23:11:04.401Z,983.48
2018-06-16T23:12:14.411Z,983.45
2018-06-16T23:13:24.163Z,983.42
2018-06-16T23:14:33.637Z,983.41
2018-06-16T23:15:43.377Z,983.41
2018-06-16T23:16:53.111Z,983.39
2018-06-16T23:18:03.183Z,983.34
2018-06-16T23:19:13.196Z,983.4
2018-06-16T23:20:23.212Z,983.36
2018-06-16T23:21:33.219Z,983.36
2018-06-16T23:22:43.234Z,983.37
2018-06-16T23:23:53.246Z,983.37
2018-06-16T23:25:03.256Z,983.4
2018-06-16T23:26:13.275Z,983.38
2018-06-16T23:27:23.283Z,983.4
2018-06-16T23:28:33.030Z,983.39
2018-06-16T23:29:42.514Z,983.45
2018-06-16T23:30:52.533Z,983.45
2018-06-16T23:32:02.009Z,983.45
2018-06-16T23:33:11.218Z,983.48
2018-06-16T23:34:20.957Z,983.53
2018-06-16T23:35:30.744Z,983.48
2018-06-16T23:36:40.215Z,983.49
2018-06-16T23:37:50.225Z,983.49
2018-06-16T23:39:00.243Z,983.45
2018-06-16T23:40:09.990Z,983.42
2018-06-16T23:41:19.995Z,983.44
2018-06-16T23:42:30.050Z,983.39
2018-06-16T23:43:39.792Z,983.41
2018-06-16T23:44:49.796Z,983.38
2018-06-16T23:45:59.533Z,983.37
2018-06-16T23:47:09.279Z,983.37
2018-06-16T23:48:18.770Z,983.37
2018-06-16T23:49:28.508Z,983.38
2018-06-16T23:50:38.512Z,983.37
2018-06-16T23:51:48.260Z,983.4
2018-06-16T23:52:58.264Z,983.4
2018-06-16T23:54:07.745Z,983.35
2018-06-16T23:55:17.747Z,983.43
2018-06-16T23:56:27.751Z,983.48
2018-06-16T23:57:37.762Z,983.44
2018-06-16T23:58:47.771Z,983.48
2018-06-16T23:59:57.778Z,983.45
